Time;durP1;ratioP1;P1;durP2;ratioP2;P2;SDS_P1;SDS_P2;PMS_P1;PMS_P2;Temp;Humidity;BMP_temperature;BMP_pressure;BME280_temperature;BME280_humidity;BME280_pressure;Samples;Min_cycle;Max_cycle;Signal;HPM_P1;HPM_P2
2023/12/25 00:00:41;;;;;;;2.55;1.00;;;13.50;99.90;;;;;;5019533;28;20688;-65
2023/12/25 00:03:07;;;;;;;4.53;1.10;;;13.50;99.90;;;;;;5019256;28;20033;-67
2023/12/25 00:05:33;;;;;;;4.47;1.20;;;13.50;99.90;;;;;;5017196;28;20112;-68
2023/12/25 00:07:58;;;;;;;4.60;1.20;;;13.50;99.90;;;;;;5020599;28;20365;-67
2023/12/25 00:10:24;;;;;;;2.60;1.00;;;13.50;99.90;;;;;;5020352;28;20071;-68
2023/12/25 00:12:49;;;;;;;3.10;0.90;;;13.50;99.90;;;;;;5018455;28;20037;-69
2023/12/25 00:15:15;;;;;;;4.70;1.30;;;13.50;99.90;;;;;;5022295;28;20060;-67
2023/12/25 00:17:40;;;;;;;4.72;1.17;;;13.50;99.90;;;;;;5019836;28;20068;-67
2023/12/25 00:20:07;;;;;;;5.32;1.30;;;13.50;99.90;;;;;;5018367;28;20037;-68
2023/12/25 00:22:33;;;;;;;6.00;1.20;;;13.50;99.90;;;;;;5020089;28;20080;-67
2023/12/25 00:24:58;;;;;;;3.22;1.02;;;13.50;99.90;;;;;;5022096;28;20018;-65
2023/12/25 00:27:24;;;;;;;3.47;1.10;;;13.40;99.90;;;;;;5022908;28;20135;-69
2023/12/25 00:29:49;;;;;;;3.58;0.85;;;13.50;99.90;;;;;;5022418;28;20022;-67
2023/12/25 00:32:15;;;;;;;5.22;1.27;;;13.40;99.90;;;;;;5018859;28;20045;-67
2023/12/25 00:34:42;;;;;;;3.28;1.20;;;13.40;99.90;;;;;;5022462;28;20511;-67
2023/12/25 00:37:08;;;;;;;5.20;1.17;;;13.40;99.90;;;;;;5022273;28;20741;-66
2023/12/25 00:39:33;;;;;;;1.10;0.70;;;13.40;99.90;;;;;;5023502;28;20024;-65
2023/12/25 00:41:59;;;;;;;4.43;1.20;;;13.40;99.90;;;;;;5027882;28;20025;-67
2023/12/25 00:44:25;;;;;;;3.15;1.00;;;13.40;99.90;;;;;;5023238;28;20036;-68
2023/12/25 00:46:50;;;;;;;3.97;1.05;;;13.40;99.90;;;;;;5022783;28;20031;-67
2023/12/25 00:49:17;;;;;;;2.70;1.20;;;13.40;99.90;;;;;;5024288;28;20232;-67
2023/12/25 00:51:43;;;;;;;3.35;1.20;;;13.40;99.90;;;;;;5024168;28;20514;-67
2023/12/25 00:54:09;;;;;;;3.65;0.95;;;13.40;99.90;;;;;;5022275;28;20037;-66
2023/12/25 00:56:34;;;;;;;2.70;1.15;;;13.40;99.90;;;;;;5018522;28;20112;-65
2023/12/25 00:59:00;;;;;;;2.95;0.95;;;13.40;99.90;;;;;;5023848;28;20104;-67
2023/12/25 01:01:26;;;;;;;1.38;0.63;;;13.30;99.90;;;;;;5021100;28;20714;-68
2023/12/25 01:03:51;;;;;;;1.80;0.80;;;13.20;99.90;;;;;;5023831;28;20053;-68
2023/12/25 01:06:17;;;;;;;1.48;0.80;;;13.10;99.90;;;;;;5023980;28;20021;-66
2023/12/25 01:08:42;;;;;;;1.58;0.70;;;13.00;99.90;;;;;;5019851;28;20026;-67
2023/12/25 01:11:08;;;;;;;1.77;0.68;;;12.90;99.90;;;;;;5023330;28;20038;-65
2023/12/25 01:13:33;;;;;;;1.85;0.75;;;12.90;99.90;;;;;;5023992;28;20030;-66
2023/12/25 01:15:59;;;;;;;1.40;0.55;;;12.90;99.90;;;;;;5026228;28;20156;-68
2023/12/25 01:18:25;;;;;;;0.95;0.60;;;12.80;99.90;;;;;;5022983;28;20049;-66
2023/12/25 01:20:50;;;;;;;2.40;0.80;;;12.80;99.90;;;;;;5020229;28;20030;-66
2023/12/25 01:23:16;;;;;;;1.98;0.70;;;12.90;99.90;;;;;;5027168;28;20048;-66
2023/12/25 01:25:41;;;;;;;1.42;0.80;;;12.90;99.90;;;;;;5023189;28;20075;-66
2023/12/25 01:28:07;;;;;;;2.85;1.10;;;12.90;99.90;;;;;;5020557;28;20041;-65
2023/12/25 01:30:33;;;;;;;3.05;0.80;;;12.90;99.90;;;;;;5022281;28;20068;-67
2023/12/25 01:32:58;;;;;;;2.35;0.80;;;12.90;99.90;;;;;;5024757;28;20060;-68
2023/12/25 01:35:24;;;;;;;2.88;0.70;;;12.90;99.90;;;;;;5018165;28;20101;-68
2023/12/25 01:37:50;;;;;;;2.15;0.85;;;12.90;99.90;;;;;;5024999;28;20061;-69
2023/12/25 01:40:16;;;;;;;3.90;1.25;;;12.90;99.90;;;;;;5018381;28;20018;-66
2023/12/25 01:42:42;;;;;;;2.20;1.08;;;12.90;99.90;;;;;;5024407;28;20017;-67
2023/12/25 01:45:10;;;;;;;4.00;1.13;;;12.90;99.90;;;;;;5020020;28;20021;-66
2023/12/25 01:47:36;;;;;;;3.08;1.00;;;12.90;99.90;;;;;;5025180;28;20025;-66
2023/12/25 01:50:04;;;;;;;2.03;1.10;;;12.90;99.90;;;;;;5019834;28;20105;-67
2023/12/25 01:52:29;;;;;;;3.17;0.90;;;12.90;99.90;;;;;;5020663;28;20045;-67
2023/12/25 01:54:57;;;;;;;3.00;1.08;;;12.90;99.90;;;;;;5020637;28;20499;-67
2023/12/25 01:57:23;;;;;;;2.05;0.80;;;13.00;99.90;;;;;;5023789;28;20014;-67
2023/12/25 01:59:49;;;;;;;3.58;1.42;;;12.90;99.90;;;;;;5024735;28;20492;-67
2023/12/25 02:02:15;;;;;;;5.40;1.40;;;12.90;99.90;;;;;;5022896;28;20057;-67
2023/12/25 02:04:40;;;;;;;3.38;1.00;;;12.90;99.90;;;;;;5022318;28;20041;-66
2023/12/25 02:07:07;;;;;;;5.22;1.20;;;12.90;99.90;;;;;;5026160;28;20026;-65
2023/12/25 02:09:32;;;;;;;1.95;0.80;;;12.80;99.90;;;;;;5022282;28;20029;-68
2023/12/25 02:11:58;;;;;;;1.70;0.93;;;12.80;99.90;;;;;;5026039;28;20580;-67
2023/12/25 02:14:24;;;;;;;1.70;0.60;;;12.70;99.90;;;;;;5023699;28;20037;-67
2023/12/25 02:16:50;;;;;;;1.25;0.60;;;12.60;99.90;;;;;;5019060;28;20041;-67
2023/12/25 02:19:31;;;;;;;1.10;0.52;;;12.50;99.90;;;;;;5015992;28;20059;-67
2023/12/25 02:21:58;;;;;;;2.40;0.65;;;12.40;99.90;;;;;;5015141;28;20117;-65
2023/12/25 02:24:29;;;;;;;1.45;0.88;;;12.30;99.90;;;;;;5025100;28;20535;-66
2023/12/25 02:26:55;;;;;;;0.68;0.52;;;12.20;99.90;;;;;;5015959;28;20125;-67
2023/12/25 02:29:20;;;;;;;1.52;0.77;;;12.20;99.90;;;;;;5020849;28;20104;-67
2023/12/25 02:31:50;;;;;;;1.00;0.70;;;12.10;99.90;;;;;;5016956;28;20116;-67
2023/12/25 02:34:15;;;;;;;0.85;0.50;;;12.00;99.90;;;;;;5010436;28;20026;-67
2023/12/25 02:36:41;;;;;;;1.95;0.40;;;12.00;99.90;;;;;;5014893;28;20034;-66
2023/12/25 02:39:07;;;;;;;1.90;0.43;;;11.90;99.90;;;;;;5019708;28;20034;-66
2023/12/25 02:41:32;;;;;;;0.40;0.40;;;12.00;99.90;;;;;;5018635;28;20154;-67
2023/12/25 02:43:58;;;;;;;1.52;0.50;;;12.00;99.90;;;;;;5013648;28;20017;-67
2023/12/25 02:46:24;;;;;;;0.55;0.55;;;12.00;99.90;;;;;;5014469;28;20025;-66
2023/12/25 02:48:50;;;;;;;0.55;0.50;;;12.10;99.90;;;;;;5019251;28;20045;-68
2023/12/25 02:51:15;;;;;;;1.40;0.60;;;12.10;99.90;;;;;;5019842;28;20049;-68
2023/12/25 02:53:41;;;;;;;1.98;0.90;;;12.20;99.90;;;;;;5017150;28;20045;-67
2023/12/25 02:56:06;;;;;;;2.17;0.70;;;12.30;99.90;;;;;;5016271;28;20480;-67
2023/12/25 02:58:33;;;;;;;3.28;0.95;;;12.30;99.90;;;;;;5016934;28;20093;-68
2023/12/25 03:00:58;;;;;;;3.15;0.88;;;12.30;99.90;;;;;;5017941;28;20022;-67
2023/12/25 03:03:24;;;;;;;5.07;1.30;;;12.40;99.90;;;;;;5024747;28;20021;-68
2023/12/25 03:05:49;;;;;;;5.43;1.02;;;12.50;99.90;;;;;;5016414;28;20037;-67
2023/12/25 03:08:15;;;;;;;3.58;0.98;;;12.50;99.90;;;;;;5015283;28;20038;-68
2023/12/25 03:10:41;;;;;;;4.75;1.65;;;12.60;99.90;;;;;;5024148;28;20034;-67
2023/12/25 03:13:07;;;;;;;2.38;0.90;;;12.60;99.90;;;;;;5019402;28;20022;-66
2023/12/25 03:15:34;;;;;;;4.72;1.52;;;12.70;99.90;;;;;;5019551;28;20044;-66
2023/12/25 03:17:59;;;;;;;3.25;0.90;;;12.70;99.90;;;;;;5011151;28;20061;-67
2023/12/25 03:20:25;;;;;;;4.03;1.40;;;12.80;99.90;;;;;;5017873;28;20018;-67
2023/12/25 03:22:50;;;;;;;2.85;0.80;;;12.80;99.90;;;;;;5012615;28;20090;-67
2023/12/25 03:25:16;;;;;;;5.03;1.30;;;12.80;99.90;;;;;;5019519;28;20022;-68
2023/12/25 03:27:42;;;;;;;3.95;1.23;;;12.80;99.90;;;;;;5020279;28;20029;-68
2023/12/25 03:30:07;;;;;;;4.80;1.08;;;12.80;99.90;;;;;;5011340;28;20058;-66
2023/12/25 03:32:34;;;;;;;2.42;1.00;;;12.80;99.90;;;;;;5016441;28;20071;-67
2023/12/25 03:34:59;;;;;;;4.35;1.60;;;12.80;99.90;;;;;;5021368;28;20021;-66
2023/12/25 03:37:25;;;;;;;4.28;1.00;;;12.90;99.90;;;;;;5020738;28;20044;-66
2023/12/25 03:39:52;;;;;;;3.33;0.93;;;12.90;99.90;;;;;;5018765;28;20033;-66
2023/12/25 03:42:17;;;;;;;2.67;1.15;;;12.90;99.90;;;;;;5014134;28;20117;-67
2023/12/25 03:44:43;;;;;;;5.13;1.10;;;12.90;99.90;;;;;;5017244;28;20064;-67
2023/12/25 03:47:09;;;;;;;5.65;1.40;;;12.90;99.90;;;;;;5016544;28;20021;-66
2023/12/25 03:49:35;;;;;;;3.90;1.08;;;12.90;99.90;;;;;;5018699;28;20026;-67
2023/12/25 03:52:01;;;;;;;3.63;1.10;;;13.00;99.90;;;;;;5017985;28;20550;-67
2023/12/25 03:54:27;;;;;;;4.72;1.30;;;13.00;99.90;;;;;;5019836;28;20034;-66
2023/12/25 03:56:52;;;;;;;5.75;1.58;;;13.00;99.90;;;;;;5018949;28;20037;-67
2023/12/25 03:59:18;;;;;;;4.15;1.10;;;13.00;99.90;;;;;;5022496;28;20053;-68
2023/12/25 04:01:43;;;;;;;6.55;1.25;;;13.00;99.90;;;;;;5023812;28;20036;-68
2023/12/25 04:04:09;;;;;;;4.28;1.15;;;13.00;99.90;;;;;;5015076;28;20423;-67
2023/12/25 04:06:35;;;;;;;2.38;0.90;;;13.00;99.90;;;;;;5011392;28;20421;-66
2023/12/25 04:09:00;;;;;;;5.00;1.13;;;13.00;99.90;;;;;;5021805;28;20095;-67
2023/12/25 04:11:26;;;;;;;3.88;1.20;;;13.00;99.90;;;;;;5018640;28;20030;-67
2023/12/25 04:13:54;;;;;;;3.35;0.90;;;13.00;99.90;;;;;;5016536;28;20088;-66
2023/12/25 04:16:21;;;;;;;7.70;1.25;;;13.00;99.90;;;;;;5025197;28;20044;-67
2023/12/25 04:18:47;;;;;;;3.50;1.20;;;13.10;99.90;;;;;;5023969;28;20037;-67
2023/12/25 04:21:28;;;;;;;2.38;1.02;;;13.00;99.90;;;;;;5017129;28;20022;-68
2023/12/25 04:23:55;;;;;;;4.60;1.00;;;13.00;99.90;;;;;;5024194;28;20499;-67
2023/12/25 04:26:21;;;;;;;5.85;1.38;;;13.00;99.90;;;;;;5022963;28;20030;-68
2023/12/25 04:28:48;;;;;;;3.25;0.98;;;13.00;99.90;;;;;;5030204;28;20033;-68
2023/12/25 04:31:14;;;;;;;3.53;1.05;;;13.00;99.90;;;;;;5023609;28;20075;-66
2023/12/25 04:33:40;;;;;;;2.38;1.00;;;13.00;99.90;;;;;;5027010;28;20033;-66
2023/12/25 04:36:06;;;;;;;4.38;1.17;;;13.00;99.90;;;;;;5023709;28;20038;-67
2023/12/25 04:38:32;;;;;;;4.00;1.00;;;13.00;99.90;;;;;;5021894;28;20026;-68
2023/12/25 04:40:59;;;;;;;3.42;1.05;;;13.00;99.90;;;;;;5017871;28;20112;-66
2023/12/25 04:43:25;;;;;;;6.07;1.30;;;13.00;99.90;;;;;;5015666;28;20053;-66
2023/12/25 04:45:50;;;;;;;3.08;1.30;;;13.10;99.90;;;;;;5012610;28;20647;-67
2023/12/25 04:48:16;;;;;;;4.15;1.00;;;13.00;99.90;;;;;;5019754;28;20033;-66
2023/12/25 04:50:42;;;;;;;2.00;0.98;;;13.10;99.90;;;;;;5018014;28;20029;-67
2023/12/25 04:53:08;;;;;;;5.88;1.27;;;13.00;99.90;;;;;;5020930;28;20041;-65
2023/12/25 04:55:33;;;;;;;3.03;1.10;;;13.00;99.90;;;;;;5027288;28;20047;-67
2023/12/25 04:57:59;;;;;;;3.65;1.00;;;13.00;99.90;;;;;;5028327;28;20384;-66
2023/12/25 05:00:25;;;;;;;4.65;1.77;;;13.00;99.90;;;;;;5020858;28;20014;-67
2023/12/25 05:02:50;;;;;;;5.25;1.33;;;13.10;99.90;;;;;;5017230;28;20417;-66
2023/12/25 05:05:16;;;;;;;3.10;0.93;;;13.10;99.90;;;;;;5021413;28;20044;-67
2023/12/25 05:07:42;;;;;;;2.60;0.90;;;13.10;99.90;;;;;;5020325;28;20018;-66
2023/12/25 05:10:08;;;;;;;3.97;0.95;;;13.10;99.90;;;;;;5020801;28;20447;-66
2023/12/25 05:12:33;;;;;;;2.35;0.80;;;13.10;99.90;;;;;;5020625;28;20018;-67
2023/12/25 05:14:59;;;;;;;2.35;0.93;;;13.10;99.90;;;;;;5015399;28;20415;-64
2023/12/25 05:17:25;;;;;;;3.33;0.70;;;13.10;99.90;;;;;;5021618;28;20026;-66
2023/12/25 05:19:51;;;;;;;2.38;0.95;;;13.10;99.90;;;;;;5019237;28;20091;-66
2023/12/25 05:22:16;;;;;;;2.65;0.93;;;13.10;99.90;;;;;;5017745;28;20033;-66
2023/12/25 05:24:42;;;;;;;1.20;0.70;;;13.10;99.90;;;;;;5013624;28;20038;-67
2023/12/25 05:27:08;;;;;;;1.25;0.60;;;13.10;99.90;;;;;;5018918;28;20034;-67
2023/12/25 05:29:34;;;;;;;2.45;0.80;;;13.10;99.90;;;;;;5025211;28;20052;-67
2023/12/25 05:31:59;;;;;;;3.80;0.90;;;13.10;99.90;;;;;;5019971;28;20396;-67
2023/12/25 05:34:27;;;;;;;4.38;1.00;;;13.10;99.90;;;;;;5015137;28;20484;-65
2023/12/25 05:36:53;;;;;;;2.75;1.00;;;13.00;99.90;;;;;;5014790;28;20045;-65
2023/12/25 05:39:18;;;;;;;1.30;0.70;;;13.00;99.90;;;;;;5021230;28;20400;-66
2023/12/25 05:41:44;;;;;;;2.55;0.80;;;13.00;99.90;;;;;;5021036;28;20035;-66
2023/12/25 05:44:09;;;;;;;3.13;0.73;;;13.00;99.90;;;;;;5014475;28;20026;-65
2023/12/25 05:46:36;;;;;;;1.80;0.60;;;13.00;99.90;;;;;;5016450;28;20010;-65
2023/12/25 05:49:02;;;;;;;2.25;0.70;;;12.90;99.90;;;;;;5016723;28;20033;-64
2023/12/25 05:51:28;;;;;;;1.60;0.60;;;12.90;99.90;;;;;;5014520;28;20021;-65
2023/12/25 05:53:54;;;;;;;0.93;0.70;;;12.90;99.90;;;;;;5026107;28;20112;-63
2023/12/25 05:56:19;;;;;;;0.65;0.52;;;12.90;99.90;;;;;;5019539;28;20068;-65
2023/12/25 05:58:45;;;;;;;0.77;0.50;;;12.90;99.90;;;;;;5016698;28;20048;-66
2023/12/25 06:01:12;;;;;;;1.50;0.60;;;12.90;99.90;;;;;;5017038;28;20105;-65
2023/12/25 06:03:39;;;;;;;0.85;0.70;;;12.90;99.90;;;;;;5026698;28;20476;-64
2023/12/25 06:06:05;;;;;;;2.17;1.08;;;12.90;99.90;;;;;;5028555;28;20025;-64
2023/12/25 06:08:30;;;;;;;2.03;0.75;;;12.90;99.90;;;;;;5031947;28;20033;-64
2023/12/25 06:10:57;;;;;;;2.53;1.35;;;12.90;99.90;;;;;;5026344;28;20139;-65
2023/12/25 06:13:22;;;;;;;1.52;0.90;;;12.90;99.90;;;;;;5024891;28;20026;-65
2023/12/25 06:15:51;;;;;;;2.10;0.80;;;12.90;99.90;;;;;;5019045;28;20368;-65
2023/12/25 06:18:17;;;;;;;4.20;0.90;;;12.90;99.90;;;;;;5015723;28;20095;-66
2023/12/25 06:20:43;;;;;;;1.60;0.77;;;12.90;99.90;;;;;;5022199;28;20022;-66
2023/12/25 06:23:08;;;;;;;1.55;0.93;;;12.90;99.90;;;;;;5021986;28;20021;-66
2023/12/25 06:25:35;;;;;;;1.33;0.90;;;12.90;99.90;;;;;;5019127;28;20022;-67
2023/12/25 06:28:00;;;;;;;1.02;0.77;;;12.90;99.90;;;;;;5011790;28;20109;-66
2023/12/25 06:30:26;;;;;;;1.33;0.82;;;12.90;99.90;;;;;;5018772;28;20172;-66
2023/12/25 06:32:51;;;;;;;0.93;0.80;;;12.90;99.90;;;;;;5012054;28;20036;-65
2023/12/25 06:35:17;;;;;;;1.15;0.60;;;12.90;99.90;;;;;;5013229;28;20034;-67
2023/12/25 06:37:42;;;;;;;2.58;0.70;;;12.90;99.90;;;;;;5018389;28;20385;-66
2023/12/25 06:40:08;;;;;;;1.27;0.95;;;12.90;99.90;;;;;;5019910;28;20025;-63
2023/12/25 06:42:34;;;;;;;1.25;0.90;;;12.90;99.90;;;;;;5017062;28;20026;-65
2023/12/25 06:45:00;;;;;;;2.38;0.80;;;12.90;99.90;;;;;;5017166;28;20040;-66
2023/12/25 06:47:26;;;;;;;1.27;0.80;;;12.90;99.90;;;;;;5025785;28;20029;-67
2023/12/25 06:49:52;;;;;;;2.35;0.90;;;12.90;99.90;;;;;;5025007;28;20033;-67
2023/12/25 06:52:18;;;;;;;3.38;0.77;;;12.90;99.90;;;;;;5010776;28;20045;-67
2023/12/25 06:54:44;;;;;;;2.65;0.90;;;12.90;99.90;;;;;;5013145;28;20432;-67
2023/12/25 06:57:11;;;;;;;0.68;0.68;;;12.90;99.90;;;;;;5025402;28;20026;-67
2023/12/25 06:59:37;;;;;;;0.90;0.60;;;12.80;99.90;;;;;;5019515;28;20034;-66
2023/12/25 07:02:03;;;;;;;1.95;0.70;;;12.80;99.90;;;;;;5018825;28;20111;-66
2023/12/25 07:04:28;;;;;;;1.00;0.63;;;12.80;99.90;;;;;;5015631;28;20630;-66
2023/12/25 07:06:54;;;;;;;0.50;0.50;;;12.80;99.90;;;;;;5011095;28;20501;-67
2023/12/25 07:09:19;;;;;;;0.50;0.50;;;12.80;99.90;;;;;;5016610;28;20037;-67
2023/12/25 07:11:45;;;;;;;0.55;0.50;;;12.80;99.90;;;;;;5018366;28;20029;-67
2023/12/25 07:14:11;;;;;;;0.90;0.50;;;12.70;99.90;;;;;;5023961;28;20041;-66
2023/12/25 07:16:36;;;;;;;0.70;0.50;;;12.70;99.90;;;;;;5012528;28;20041;-67
2023/12/25 07:19:02;;;;;;;0.68;0.40;;;12.70;99.90;;;;;;5020762;28;20029;-67
2023/12/25 07:21:28;;;;;;;0.40;0.40;;;12.70;99.90;;;;;;5015125;28;20021;-67
2023/12/25 07:23:54;;;;;;;0.35;0.35;;;12.70;99.90;;;;;;5015877;28;20457;-68
2023/12/25 07:26:19;;;;;;;2.30;0.50;;;12.70;99.90;;;;;;5018779;28;20397;-67
2023/12/25 07:28:45;;;;;;;0.50;0.50;;;12.60;99.90;;;;;;5012895;28;20137;-65
2023/12/25 07:31:11;;;;;;;0.50;0.50;;;12.60;99.90;;;;;;5012411;28;20022;-66
2023/12/25 07:33:37;;;;;;;1.38;0.47;;;12.60;99.90;;;;;;5014450;28;20549;-66
2023/12/25 07:36:04;;;;;;;0.57;0.40;;;12.60;99.90;;;;;;5022092;28;20024;-63
2023/12/25 07:38:29;;;;;;;0.77;0.30;;;12.60;99.90;;;;;;5024511;28;20212;-65
2023/12/25 07:40:55;;;;;;;0.98;0.47;;;12.60;99.90;;;;;;5016225;28;20136;-65
2023/12/25 07:43:22;;;;;;;0.40;0.40;;;12.50;99.90;;;;;;5017844;28;20033;-65
2023/12/25 07:45:47;;;;;;;1.13;0.50;;;12.50;99.90;;;;;;5015885;28;20021;-66
2023/12/25 07:48:13;;;;;;;0.40;0.40;;;12.50;99.90;;;;;;5022877;28;20048;-67
2023/12/25 07:50:38;;;;;;;0.40;0.40;;;12.50;99.90;;;;;;5011924;28;20117;-69
2023/12/25 07:53:04;;;;;;;1.60;0.52;;;12.50;99.90;;;;;;5024036;28;20087;-66
2023/12/25 07:55:30;;;;;;;0.68;0.50;;;12.50;99.90;;;;;;5026914;28;20029;-67
2023/12/25 07:57:56;;;;;;;0.70;0.47;;;12.50;99.90;;;;;;5029314;28;20032;-67
2023/12/25 08:00:22;;;;;;;0.50;0.50;;;12.50;99.90;;;;;;5024659;28;20364;-65
2023/12/25 08:02:48;;;;;;;0.40;0.40;;;12.50;99.90;;;;;;5016816;28;20025;-65
2023/12/25 08:05:13;;;;;;;1.65;0.63;;;12.50;99.90;;;;;;5019315;28;20029;-67
2023/12/25 08:07:39;;;;;;;0.50;0.40;;;12.50;99.90;;;;;;5024182;28;20030;-66
2023/12/25 08:10:05;;;;;;;0.40;0.40;;;12.50;99.90;;;;;;5017338;28;20018;-65
2023/12/25 08:12:31;;;;;;;0.70;0.40;;;12.50;99.90;;;;;;5017132;28;20029;-66
2023/12/25 08:14:56;;;;;;;1.30;0.50;;;12.50;99.90;;;;;;5017595;28;20022;-66
2023/12/25 08:17:22;;;;;;;0.88;0.50;;;12.40;99.90;;;;;;5009263;28;20029;-66
2023/12/25 08:19:47;;;;;;;0.55;0.35;;;12.50;99.90;;;;;;5020651;28;20372;-67
2023/12/25 08:22:13;;;;;;;1.35;0.47;;;12.50;99.90;;;;;;5017807;28;20388;-67
2023/12/25 08:24:39;;;;;;;0.60;0.50;;;12.50;99.90;;;;;;5028337;28;20439;-66
2023/12/25 08:27:04;;;;;;;0.75;0.40;;;12.50;99.90;;;;;;5027011;28;20029;-66
2023/12/25 08:29:30;;;;;;;0.40;0.40;;;12.50;99.90;;;;;;5017153;28;20026;-67
2023/12/25 08:31:56;;;;;;;0.40;0.40;;;12.50;99.90;;;;;;5021746;28;20030;-66
2023/12/25 08:34:24;;;;;;;0.52;0.40;;;12.60;99.90;;;;;;5023761;28;20046;-66
2023/12/25 08:36:50;;;;;;;0.88;0.40;;;12.50;99.90;;;;;;5021159;28;20042;-66
2023/12/25 08:39:16;;;;;;;0.40;0.40;;;12.60;99.90;;;;;;5009927;28;20508;-65
2023/12/25 08:41:41;;;;;;;0.40;0.40;;;12.60;99.90;;;;;;5026852;28;20028;-66
2023/12/25 08:44:08;;;;;;;0.68;0.47;;;12.60;99.90;;;;;;5023132;28;20026;-66
2023/12/25 08:46:33;;;;;;;1.13;0.40;;;12.60;99.90;;;;;;5011502;28;20125;-66
2023/12/25 08:48:59;;;;;;;0.40;0.40;;;12.60;99.90;;;;;;5009461;28;20097;-66
2023/12/25 08:51:25;;;;;;;0.40;0.40;;;12.50;99.90;;;;;;5017158;28;20072;-65
2023/12/25 08:53:51;;;;;;;0.75;0.40;;;12.50;99.90;;;;;;5015377;28;20069;-66
2023/12/25 08:56:26;;;;;;;0.43;0.40;;;12.50;99.90;;;;;;5024409;28;20029;-66
2023/12/25 08:58:52;;;;;;;1.13;0.50;;;12.50;99.90;;;;;;5028187;28;20480;-67
2023/12/25 09:01:18;;;;;;;3.17;0.60;;;12.60;99.90;;;;;;5020456;28;20025;-66
2023/12/25 09:03:44;;;;;;;1.92;0.60;;;12.60;99.90;;;;;;5031203;28;20088;-63
2023/12/25 09:06:09;;;;;;;0.60;0.50;;;12.50;99.90;;;;;;5019305;28;20419;-64
2023/12/25 09:08:35;;;;;;;1.30;0.40;;;12.50;99.90;;;;;;5022831;28;20029;-66
2023/12/25 09:11:00;;;;;;;0.40;0.40;;;12.60;99.90;;;;;;5021996;28;20049;-67
2023/12/25 09:13:26;;;;;;;0.40;0.40;;;12.60;99.90;;;;;;5015267;28;20628;-67
2023/12/25 09:15:51;;;;;;;1.05;0.50;;;12.60;99.90;;;;;;5013269;28;20026;-66
2023/12/25 09:18:17;;;;;;;0.68;0.40;;;12.60;99.90;;;;;;5018073;28;20029;-65
2023/12/25 09:20:43;;;;;;;0.55;0.55;;;12.60;99.90;;;;;;5020608;28;21825;-67
2023/12/25 09:23:08;;;;;;;3.92;1.15;;;12.60;99.90;;;;;;5024168;28;20448;-66
2023/12/25 09:25:34;;;;;;;2.35;0.70;;;12.60;99.90;;;;;;5022360;28;20490;-66
2023/12/25 09:27:59;;;;;;;1.17;0.60;;;12.60;99.90;;;;;;5025475;28;20025;-64
2023/12/25 09:30:25;;;;;;;1.15;0.40;;;12.60;99.90;;;;;;5027598;28;20677;-66
2023/12/25 09:32:50;;;;;;;1.63;0.50;;;12.60;99.90;;;;;;5026160;28;20365;-66
2023/12/25 09:35:18;;;;;;;0.77;0.50;;;12.60;99.90;;;;;;5024891;28;20075;-66
2023/12/25 09:37:43;;;;;;;0.88;0.60;;;12.70;99.90;;;;;;5026591;28;20511;-66
2023/12/25 09:40:09;;;;;;;0.50;0.50;;;12.70;99.90;;;;;;5021958;28;20029;-63
2023/12/25 09:42:35;;;;;;;0.50;0.50;;;12.70;99.90;;;;;;5025576;28;20026;-66
2023/12/25 09:45:01;;;;;;;0.30;0.30;;;12.60;99.90;;;;;;5024731;28;20026;-66
2023/12/25 09:47:27;;;;;;;0.50;0.50;;;12.70;99.90;;;;;;5026114;28;20030;-67
2023/12/25 09:49:55;;;;;;;0.40;0.40;;;12.70;99.90;;;;;;5016707;28;20437;-66
2023/12/25 09:52:23;;;;;;;0.52;0.30;;;12.70;99.90;;;;;;5019751;28;20033;-65
2023/12/25 09:54:48;;;;;;;2.05;0.40;;;12.70;99.90;;;;;;5024837;28;20035;-67
2023/12/25 09:57:16;;;;;;;0.40;0.40;;;12.70;99.90;;;;;;5024792;28;20021;-66
2023/12/25 09:59:42;;;;;;;0.85;0.50;;;12.70;99.90;;;;;;5019817;28;20042;-66
2023/12/25 10:02:10;;;;;;;0.90;0.52;;;12.70;99.90;;;;;;5025679;28;20391;-62
2023/12/25 10:04:39;;;;;;;0.52;0.47;;;12.70;99.90;;;;;;5023101;28;20027;-65
2023/12/25 10:07:04;;;;;;;0.57;0.52;;;12.70;99.90;;;;;;5027219;28;20029;-66
2023/12/25 10:09:30;;;;;;;0.68;0.40;;;12.80;99.90;;;;;;5028979;28;20025;-66
2023/12/25 10:11:56;;;;;;;0.50;0.50;;;12.80;99.90;;;;;;5025421;28;20037;-66
2023/12/25 10:14:21;;;;;;;0.50;0.50;;;12.80;99.90;;;;;;5024074;28;20077;-66
2023/12/25 10:16:49;;;;;;;1.23;0.55;;;12.80;99.90;;;;;;5027455;28;20063;-67
2023/12/25 10:19:15;;;;;;;0.60;0.60;;;12.80;99.90;;;;;;5026992;28;20028;-65
2023/12/25 10:21:42;;;;;;;0.63;0.45;;;12.80;99.90;;;;;;5024777;28;20013;-65
2023/12/25 10:24:15;;;;;;;0.70;0.70;;;12.90;99.90;;;;;;5025357;28;20118;-66
2023/12/25 10:26:43;;;;;;;0.40;0.40;;;12.90;99.90;;;;;;5023662;28;20026;-66
2023/12/25 10:29:09;;;;;;;0.55;0.40;;;12.90;99.90;;;;;;5026943;28;20027;-63
2023/12/25 10:31:38;;;;;;;0.85;0.60;;;12.90;99.90;;;;;;5026919;28;20017;-67
2023/12/25 10:34:04;;;;;;;1.35;0.50;;;12.90;99.90;;;;;;5017579;28;20036;-67
2023/12/25 10:36:29;;;;;;;0.88;0.40;;;12.90;99.90;;;;;;5016857;28;20053;-67
2023/12/25 10:38:55;;;;;;;0.82;0.55;;;12.90;99.90;;;;;;5021982;28;20052;-66
2023/12/25 10:41:26;;;;;;;0.40;0.40;;;12.90;99.90;;;;;;5025862;28;20384;-63
2023/12/25 10:43:55;;;;;;;1.98;0.40;;;12.90;99.90;;;;;;5020836;28;20067;-66
2023/12/25 10:46:35;;;;;;;0.50;0.50;;;12.90;99.90;;;;;;5022650;28;20037;-65
2023/12/25 10:49:02;;;;;;;0.65;0.50;;;12.90;99.90;;;;;;5023497;28;20044;-67
2023/12/25 10:51:37;;;;;;;0.40;0.40;;;12.90;99.90;;;;;;5022551;28;20033;-66
2023/12/25 10:54:08;;;;;;;0.73;0.47;;;13.00;99.90;;;;;;5021537;28;20037;-66
2023/12/25 10:56:35;;;;;;;0.50;0.50;;;12.90;99.90;;;;;;5022037;28;20039;-66
2023/12/25 10:59:24;;;;;;;0.57;0.45;;;12.90;99.90;;;;;;5022468;28;20030;-65
2023/12/25 11:01:52;;;;;;;0.60;0.50;;;12.90;99.90;;;;;;5027759;28;20529;-65
2023/12/25 11:04:20;;;;;;;0.70;0.50;;;12.90;99.90;;;;;;5019953;28;20541;-66
2023/12/25 11:06:46;;;;;;;0.40;0.40;;;12.90;99.90;;;;;;5018040;28;20017;-65
2023/12/25 11:09:12;;;;;;;0.90;0.40;;;12.90;99.90;;;;;;5023362;28;20025;-67
2023/12/25 11:11:39;;;;;;;0.50;0.50;;;13.00;99.90;;;;;;5021263;28;21205;-66
2023/12/25 11:14:06;;;;;;;0.40;0.40;;;13.00;99.90;;;;;;5022995;28;20025;-65
2023/12/25 11:16:33;;;;;;;1.42;0.60;;;13.00;99.90;;;;;;5021024;28;20025;-66
2023/12/25 11:19:00;;;;;;;0.65;0.60;;;13.00;99.90;;;;;;5022698;28;20029;-65
2023/12/25 11:21:30;;;;;;;0.55;0.50;;;12.90;99.90;;;;;;5024009;28;20139;-64
2023/12/25 11:23:58;;;;;;;1.40;0.65;;;12.90;99.90;;;;;;5020019;28;20026;-66
2023/12/25 11:26:24;;;;;;;1.40;0.60;;;13.00;99.90;;;;;;5019738;28;20029;-65
2023/12/25 11:29:17;;;;;;;0.70;0.40;;;13.10;99.90;;;;;;5022292;28;20369;-65
2023/12/25 11:31:45;;;;;;;0.50;0.40;;;13.10;99.90;;;;;;5019871;28;20033;-67
2023/12/25 11:34:40;;;;;;;0.40;0.40;;;13.10;99.90;;;;;;5016309;28;20106;-63
2023/12/25 11:37:18;;;;;;;1.40;0.68;;;13.10;99.90;;;;;;5020943;28;20076;-65
2023/12/25 11:40:01;;;;;;;1.27;0.55;;;13.10;99.80;;;;;;5018587;28;20025;-64
2023/12/25 11:42:27;;;;;;;1.20;0.52;;;13.10;99.70;;;;;;5022238;28;20037;-64
2023/12/25 11:44:56;;;;;;;0.70;0.50;;;13.10;99.50;;;;;;5014497;28;20526;-66
2023/12/25 11:47:39;;;;;;;0.70;0.50;;;13.10;99.70;;;;;;5022421;28;20029;-63
2023/12/25 11:50:05;;;;;;;0.40;0.40;;;13.10;99.50;;;;;;5014531;28;20029;-64
2023/12/25 11:52:46;;;;;;;1.30;0.60;;;13.10;99.40;;;;;;5020523;28;20037;-66
2023/12/25 11:55:18;;;;;;;0.60;0.60;;;13.00;99.30;;;;;;5019784;28;20105;-66
2023/12/25 11:57:45;;;;;;;0.57;0.50;;;13.00;99.20;;;;;;5017676;28;20079;-67
2023/12/25 12:00:21;;;;;;;0.93;0.50;;;13.00;99.20;;;;;;5017931;28;20026;-65
2023/12/25 12:02:47;;;;;;;0.50;0.50;;;13.00;99.20;;;;;;5014534;28;20510;-67
2023/12/25 12:05:14;;;;;;;1.23;0.50;;;13.00;99.10;;;;;;5013920;28;20057;-65
2023/12/25 12:07:40;;;;;;;1.83;0.60;;;13.00;98.90;;;;;;5017857;28;20033;-67
2023/12/25 12:10:07;;;;;;;3.33;0.52;;;13.00;98.90;;;;;;5015471;28;20087;-66
2023/12/25 12:12:33;;;;;;;1.65;0.60;;;13.00;98.90;;;;;;5016254;28;20033;-65
2023/12/25 12:15:00;;;;;;;2.05;0.63;;;13.00;98.80;;;;;;5016834;28;20084;-65
2023/12/25 12:17:25;;;;;;;0.47;0.47;;;13.00;98.70;;;;;;5016004;28;20485;-66
2023/12/25 12:19:52;;;;;;;1.60;0.50;;;13.00;98.80;;;;;;5019750;28;20033;-67
2023/12/25 12:22:18;;;;;;;1.48;0.60;;;13.10;98.80;;;;;;5019059;28;20091;-66
2023/12/25 12:24:44;;;;;;;0.70;0.40;;;13.30;98.80;;;;;;5017062;28;20022;-65
2023/12/25 12:27:12;;;;;;;1.67;0.50;;;13.40;98.60;;;;;;5017708;28;21566;-65
2023/12/25 12:29:39;;;;;;;1.83;0.60;;;13.40;98.50;;;;;;5013988;28;20049;-65
2023/12/25 12:32:08;;;;;;;0.63;0.52;;;13.40;98.20;;;;;;5017643;28;20026;-65
2023/12/25 12:34:34;;;;;;;0.50;0.45;;;13.30;98.30;;;;;;5016634;28;20024;-66
2023/12/25 12:37:05;;;;;;;0.77;0.50;;;13.30;98.40;;;;;;5020575;28;20025;-66
2023/12/25 12:39:33;;;;;;;2.00;0.60;;;13.20;98.30;;;;;;5019833;28;20601;-65
2023/12/25 12:42:00;;;;;;;1.98;0.60;;;13.20;98.40;;;;;;5020540;28;20018;-67
2023/12/25 12:44:26;;;;;;;0.50;0.50;;;13.20;98.30;;;;;;5017716;28;20029;-65